createdAt,value
2022-11-18T00:00:49.883Z,99178.16
2022-11-18T00:01:53.505Z,99175.50
2022-11-18T00:02:55.088Z,99180.81
2022-11-18T00:03:58.949Z,99175.50
2022-11-18T00:05:00.568Z,99182.47
2022-11-18T00:06:03.247Z,99177.34
2022-11-18T00:07:05.023Z,99184.28
2022-11-18T00:08:07.590Z,99186.13
2022-11-18T00:09:10.250Z,99189.59
2022-11-18T00:10:11.773Z,99184.47
2022-11-18T00:11:37.232Z,99187.94
2022-11-18T00:12:57.645Z,99186.13
2022-11-18T00:14:17.784Z,99192.44
2022-11-18T00:15:20.303Z,99194.09
2022-11-18T00:16:22.332Z,99194.25
2022-11-18T00:17:24.945Z,99192.44
2022-11-18T00:18:26.945Z,99187.94
2022-11-18T00:19:33.697Z,99189.78
2022-11-18T00:20:35.532Z,99196.91
2022-11-18T00:21:38.081Z,99196.06
2022-11-18T00:22:40.551Z,99197.09
2022-11-18T00:23:42.057Z,99192.75
2022-11-18T00:24:44.540Z,99187.59
2022-11-18T00:25:46.107Z,99190.44
2022-11-18T00:26:49.439Z,99192.41
2022-11-18T00:27:51.002Z,99193.44
2022-11-18T00:28:53.505Z,99198.72
2022-11-18T00:29:55.021Z,99196.41
2022-11-18T00:31:02.285Z,99193.75
2022-11-18T00:32:05.084Z,99195.41
2022-11-18T00:33:06.587Z,99197.06
2022-11-18T00:34:12.247Z,99201.38
2022-11-18T00:35:15.130Z,99198.72
2022-11-18T00:36:17.947Z,99203.03
2022-11-18T00:37:20.670Z,99200.38
2022-11-18T00:38:22.471Z,99200.38
2022-11-18T00:39:25.997Z,99203.88
2022-11-18T00:40:27.689Z,99205.69
2022-11-18T00:41:51.051Z,99197.91
2022-11-18T00:42:52.601Z,99207.69
2022-11-18T00:43:54.171Z,99206.00
2022-11-18T00:44:56.638Z,99209.50
2022-11-18T00:45:58.528Z,99199.88
2022-11-18T00:47:01.287Z,99204.38
2022-11-18T00:48:03.145Z,99205.34
2022-11-18T00:49:05.658Z,99211.66
2022-11-18T00:50:08.777Z,99211.84
2022-11-18T00:51:14.497Z,99199.66
2022-11-18T00:52:16.980Z,99208.63
2022-11-18T00:53:18.811Z,99207.94
2022-11-18T00:54:21.720Z,99209.94
2022-11-18T00:55:23.261Z,99209.94
2022-11-18T00:56:25.781Z,99208.13
2022-11-18T00:57:27.439Z,99208.13
2022-11-18T00:58:30.504Z,99212.47
2022-11-18T00:59:32.050Z,99211.63
2022-11-18T01:00:34.615Z,99213.25
2022-11-18T01:01:36.977Z,99216.94
2022-11-18T01:02:39.611Z,99224.88
2022-11-18T01:03:41.127Z,99215.25
2022-11-18T01:04:43.616Z,99220.41
2022-11-18T01:05:45.482Z,99224.06
2022-11-18T01:06:49.390Z,99224.88
2022-11-18T01:07:50.889Z,99220.41
2022-11-18T01:08:53.438Z,99227.38
2022-11-18T01:09:55.799Z,99222.88
2022-11-18T01:11:18.439Z,99231.69
2022-11-18T01:12:38.736Z,99234.34
2022-11-18T01:13:40.254Z,99233.34
2022-11-18T01:14:41.840Z,99236.00
2022-11-18T01:15:46.530Z,99231.50
2022-11-18T01:16:51.150Z,99240.47
2022-11-18T01:17:53.745Z,99234.34
2022-11-18T01:18:55.614Z,99237.97
2022-11-18T01:19:58.165Z,99239.78
2022-11-18T01:21:00.681Z,99240.81
2022-11-18T01:22:04.819Z,99233.84
2022-11-18T01:23:06.373Z,99238.31
2022-11-18T01:24:08.976Z,99243.78
2022-11-18T01:25:10.478Z,99238.63
2022-11-18T01:26:15.307Z,99237.81
2022-11-18T01:27:16.819Z,99244.13
2022-11-18T01:28:23.653Z,99238.13
2022-11-18T01:29:25.738Z,99238.13
2022-11-18T01:30:28.256Z,99247.06
2022-11-18T01:31:29.764Z,99240.78
2022-11-18T01:32:32.271Z,99234.50
2022-11-18T01:33:34.154Z,99246.78
2022-11-18T01:34:36.676Z,99247.75
2022-11-18T01:35:40.124Z,99239.63
2022-11-18T01:36:42.685Z,99244.91
2022-11-18T01:37:45.517Z,99247.56
2022-11-18T01:38:48.954Z,99254.72
2022-11-18T01:39:50.453Z,99247.75
2022-11-18T01:40:52.932Z,99250.41
2022-11-18T01:41:54.639Z,99245.25
2022-11-18T01:42:57.388Z,99250.56
2022-11-18T01:44:01.996Z,99250.75
2022-11-18T01:45:10.450Z,99256.03
2022-11-18T01:46:11.975Z,99250.88
2022-11-18T01:47:14.672Z,99251.91
2022-11-18T01:48:20.505Z,99252.03
2022-11-18T01:49:23.503Z,99260.00
2022-11-18T01:50:26.123Z,99255.03
2022-11-18T01:51:33.472Z,99253.34
2022-11-18T01:52:37.430Z,99253.53
2022-11-18T01:53:44.059Z,99252.69
2022-11-18T01:54:49.785Z,99253.69
2022-11-18T01:55:55.225Z,99249.34
2022-11-18T01:57:03.390Z,99251.19
2022-11-18T01:58:11.719Z,99252.00
2022-11-18T01:59:18.142Z,99256.31
2022-11-18T02:00:21.526Z,99258.97
2022-11-18T02:01:23.643Z,99250.03
2022-11-18T02:02:28.026Z,99257.03
2022-11-18T02:03:29.856Z,99267.63
2022-11-18T02:04:32.507Z,99258.66
2022-11-18T02:05:35.368Z,99268.09
2022-11-18T02:06:38.271Z,99261.16
2022-11-18T02:07:43.130Z,99273.28
2022-11-18T02:08:47.501Z,99265.97
2022-11-18T02:09:50.557Z,99265.97
2022-11-18T02:10:53.110Z,99270.28
2022-11-18T02:11:54.967Z,99266.66
2022-11-18T02:12:58.890Z,99273.59
2022-11-18T02:14:03.083Z,99275.28
2022-11-18T02:15:06.569Z,99276.94
2022-11-18T02:16:15.665Z,99282.91
2022-11-18T02:17:31.484Z,99277.59
2022-11-18T02:18:41.848Z,99280.25
2022-11-18T02:20:22.036Z,99288.22
2022-11-18T02:21:35.160Z,99287.22
2022-11-18T02:23:08.601Z,99286.41
2022-11-18T02:24:29.994Z,99291.69
2022-11-18T02:25:37.426Z,99290.88
2022-11-18T02:27:15.015Z,99290.88
2022-11-18T02:28:37.551Z,99297.19
2022-11-18T02:29:45.011Z,99291.88
2022-11-18T02:30:53.526Z,99289.22
2022-11-18T02:32:00.379Z,99291.88
2022-11-18T02:33:07.151Z,99292.88
2022-11-18T02:34:20.052Z,99293.69
2022-11-18T02:35:28.437Z,99287.56
2022-11-18T02:36:41.306Z,99292.88
2022-11-18T02:37:47.441Z,99299.00
2022-11-18T02:38:54.996Z,99299.84
2022-11-18T02:40:04.024Z,99299.84
2022-11-18T02:41:10.210Z,99299.84
2022-11-18T02:42:14.976Z,99299.84
2022-11-18T02:43:21.771Z,99303.47
2022-11-18T02:44:26.076Z,99298.16
2022-11-18T02:45:31.789Z,99300.81
2022-11-18T02:46:36.020Z,99299.16
2022-11-18T02:47:39.446Z,99299.31
2022-11-18T02:48:45.158Z,99305.44
2022-11-18T02:49:52.860Z,99301.97
2022-11-18T02:50:55.382Z,99302.97
2022-11-18T02:51:59.381Z,99308.28
2022-11-18T02:53:05.860Z,99300.47
2022-11-18T02:54:11.332Z,99304.13
2022-11-18T02:55:15.100Z,99303.28
2022-11-18T02:56:20.839Z,99301.63
2022-11-18T02:57:26.143Z,99300.78
2022-11-18T02:58:28.798Z,99309.75
2022-11-18T02:59:30.430Z,99301.09
2022-11-18T03:00:34.607Z,99308.09
2022-11-18T03:01:36.924Z,99309.06
2022-11-18T03:02:44.080Z,99307.41
2022-11-18T03:03:45.720Z,99303.75
2022-11-18T03:04:49.826Z,99309.06
2022-11-18T03:05:58.265Z,99308.09
2022-11-18T03:07:12.753Z,99311.72
2022-11-18T03:08:20.899Z,99316.03
2022-11-18T03:09:29.152Z,99319.53
2022-11-18T03:10:35.849Z,99313.22
2022-11-18T03:11:52.343Z,99320.03
2022-11-18T03:13:04.353Z,99327.00
2022-11-18T03:14:16.904Z,99323.34
2022-11-18T03:15:24.787Z,99325.03
2022-11-18T03:16:33.303Z,99328.34
2022-11-18T03:17:45.621Z,99328.34
2022-11-18T03:18:56.186Z,99326.38
2022-11-18T03:20:06.571Z,99327.19
2022-11-18T03:21:15.281Z,99333.31
2022-11-18T03:22:24.103Z,99328.00
2022-11-18T03:23:31.480Z,99333.31
2022-11-18T03:24:38.099Z,99335.00
2022-11-18T03:25:46.072Z,99341.13
2022-11-18T03:26:53.838Z,99340.28
2022-11-18T03:28:04.079Z,99336.66
2022-11-18T03:29:10.314Z,99334.00
2022-11-18T03:30:18.716Z,99334.81
2022-11-18T03:31:25.173Z,99334.81
2022-11-18T03:32:33.632Z,99344.44
2022-11-18T03:33:39.091Z,99338.31
2022-11-18T03:34:45.346Z,99344.44
2022-11-18T03:35:52.261Z,99339.31
2022-11-18T03:37:00.808Z,99342.78
2022-11-18T03:38:08.024Z,99342.78
2022-11-18T03:39:13.151Z,99352.59
2022-11-18T03:40:21.120Z,99358.69
2022-11-18T03:41:27.036Z,99356.88
2022-11-18T03:42:33.175Z,99353.38
2022-11-18T03:43:39.069Z,99366.50
2022-11-18T03:44:49.580Z,99366.50
2022-11-18T03:45:57.644Z,99368.19
2022-11-18T03:47:04.397Z,99364.69
2022-11-18T03:48:13.136Z,99371.50
2022-11-18T03:49:20.747Z,99372.34
2022-11-18T03:50:27.389Z,99366.19
2022-11-18T03:51:33.643Z,99363.53
2022-11-18T03:52:38.421Z,99371.50
2022-11-18T03:53:44.521Z,99366.19
2022-11-18T03:54:49.564Z,99379.47
2022-11-18T03:55:55.204Z,99372.34
2022-11-18T03:57:00.471Z,99379.47
2022-11-18T03:58:08.239Z,99376.81
2022-11-18T03:59:18.270Z,99374.16
2022-11-18T04:00:20.383Z,99376.81
2022-11-18T04:01:30.473Z,99381.28
2022-11-18T04:02:32.251Z,99380.28
2022-11-18T04:03:36.403Z,99384.75
2022-11-18T04:04:38.701Z,99383.78
2022-11-18T04:05:43.758Z,99382.13
2022-11-18T04:06:49.370Z,99388.09
2022-11-18T04:07:58.155Z,99381.97
2022-11-18T04:09:03.366Z,99391.56
2022-11-18T04:10:14.339Z,99396.03
2022-11-18T04:11:38.376Z,99396.03
2022-11-18T04:12:47.028Z,99406.66
2022-11-18T04:13:48.747Z,99399.53
2022-11-18T04:14:55.287Z,99401.34
2022-11-18T04:15:57.272Z,99405.00
2022-11-18T04:16:59.847Z,99402.38
2022-11-18T04:18:01.402Z,99400.53
2022-11-18T04:19:18.353Z,99400.53
2022-11-18T04:20:23.120Z,99404.19
2022-11-18T04:21:24.874Z,99405.84
2022-11-18T04:22:27.393Z,99410.31
2022-11-18T04:23:28.924Z,99398.88
2022-11-18T04:24:31.427Z,99406.84
2022-11-18T04:25:33.350Z,99410.31
2022-11-18T04:26:39.757Z,99410.16
2022-11-18T04:27:45.906Z,99409.31
2022-11-18T04:28:48.588Z,99409.16
2022-11-18T04:29:50.142Z,99410.03
2022-11-18T04:30:54.742Z,99405.38
2022-11-18T04:31:59.402Z,99426.47
2022-11-18T04:33:02.904Z,99414.03
2022-11-18T04:34:05.736Z,99427.31
2022-11-18T04:35:08.939Z,99416.69
2022-11-18T04:36:10.534Z,99417.50
2022-11-18T04:37:13.280Z,99418.34
2022-11-18T04:38:19.191Z,99434.97
2022-11-18T04:39:24.669Z,99428.63
2022-11-18T04:40:26.271Z,99427.81
2022-11-18T04:41:42.739Z,99428.50
2022-11-18T04:42:45.541Z,99426.66
2022-11-18T04:43:47.047Z,99432.81
2022-11-18T04:44:49.510Z,99426.66
2022-11-18T04:45:51.078Z,99436.28
2022-11-18T04:46:55.314Z,99427.50
2022-11-18T04:48:03.100Z,99430.97
2022-11-18T04:49:07.595Z,99435.47
2022-11-18T04:50:11.037Z,99430.97
2022-11-18T04:51:12.623Z,99437.28
2022-11-18T04:52:15.694Z,99431.97
2022-11-18T04:53:17.257Z,99436.28
2022-11-18T04:54:21.139Z,99436.13
2022-11-18T04:55:22.748Z,99435.28
2022-11-18T04:56:25.428Z,99439.63
2022-11-18T04:57:27.984Z,99438.63
2022-11-18T04:58:30.934Z,99443.94
2022-11-18T04:59:34.569Z,99443.94
2022-11-18T05:00:36.217Z,99440.28
2022-11-18T05:01:39.209Z,99443.94
2022-11-18T05:02:41.872Z,99442.28
2022-11-18T05:03:47.800Z,99449.25
2022-11-18T05:04:54.889Z,99445.91
2022-11-18T05:05:56.549Z,99445.91
2022-11-18T05:07:06.230Z,99444.25
2022-11-18T05:08:07.861Z,99448.75
2022-11-18T05:09:17.758Z,99447.91
2022-11-18T05:10:19.502Z,99448.06
2022-11-18T05:11:40.408Z,99449.88
2022-11-18T05:12:51.729Z,99447.38
2022-11-18T05:13:53.555Z,99456.34
2022-11-18T05:14:56.117Z,99452.84
2022-11-18T05:16:01.145Z,99459.16
2022-11-18T05:17:11.465Z,99454.84
2022-11-18T05:18:14.316Z,99460.28
2022-11-18T05:19:25.570Z,99455.16
2022-11-18T05:20:34.262Z,99460.56
2022-11-18T05:21:40.196Z,99455.44
2022-11-18T05:22:47.406Z,99460.06
2022-11-18T05:24:00.101Z,99457.56
2022-11-18T05:25:09.811Z,99459.38
2022-11-18T05:26:15.435Z,99468.31
2022-11-18T05:27:25.163Z,99462.34
2022-11-18T05:28:37.269Z,99462.50
2022-11-18T05:29:39.817Z,99462.69
2022-11-18T05:30:41.388Z,99462.69
2022-11-18T05:31:44.041Z,99464.34
2022-11-18T05:32:48.656Z,99460.84
2022-11-18T05:33:52.156Z,99468.81
2022-11-18T05:34:54.721Z,99468.97
2022-11-18T05:35:57.673Z,99469.81
2022-11-18T05:37:00.713Z,99468.97
2022-11-18T05:38:02.241Z,99469.94
2022-11-18T05:39:05.008Z,99468.31
2022-11-18T05:40:08.155Z,99474.59
2022-11-18T05:41:31.287Z,99473.75
2022-11-18T05:42:51.587Z,99474.75
2022-11-18T05:43:53.168Z,99477.56
2022-11-18T05:44:58.449Z,99478.69
2022-11-18T05:46:00.831Z,99474.38
2022-11-18T05:47:03.308Z,99477.19
2022-11-18T05:48:06.798Z,99482.50
2022-11-18T05:49:09.444Z,99478.19
2022-11-18T05:50:10.984Z,99480.84
2022-11-18T05:51:14.854Z,99479.16
2022-11-18T05:52:16.358Z,99481.81
2022-11-18T05:53:20.551Z,99481.81
2022-11-18T05:54:22.754Z,99486.44
2022-11-18T05:55:30.284Z,99485.63
2022-11-18T05:56:36.810Z,99490.09
2022-11-18T05:57:39.370Z,99491.91
2022-11-18T05:58:40.907Z,99495.56
2022-11-18T05:59:43.435Z,99496.38
2022-11-18T06:00:49.471Z,99493.72
2022-11-18T06:01:57.688Z,99496.53
2022-11-18T06:03:00.482Z,99501.84
2022-11-18T06:04:07.635Z,99501.97
2022-11-18T06:05:12.444Z,99506.63
2022-11-18T06:06:18.681Z,99511.94
2022-11-18T06:07:24.346Z,99508.59
2022-11-18T06:08:30.806Z,99512.06
2022-11-18T06:09:38.578Z,99509.59
2022-11-18T06:10:43.696Z,99517.53
2022-11-18T06:11:49.690Z,99515.72
2022-11-18T06:12:55.052Z,99521.88
2022-11-18T06:14:02.917Z,99525.19
2022-11-18T06:15:09.760Z,99521.56
2022-11-18T06:16:13.836Z,99521.56
2022-11-18T06:17:18.992Z,99518.72
2022-11-18T06:18:24.675Z,99516.91
2022-11-18T06:19:26.539Z,99516.91
2022-11-18T06:20:29.527Z,99526.38
2022-11-18T06:21:33.642Z,99531.53
2022-11-18T06:22:36.552Z,99528.72
2022-11-18T06:23:40.188Z,99530.53
2022-11-18T06:24:44.138Z,99529.56
2022-11-18T06:25:45.938Z,99528.59
2022-11-18T06:26:49.301Z,99536.38
2022-11-18T06:27:55.146Z,99529.25
2022-11-18T06:28:58.023Z,99531.75
2022-11-18T06:29:59.567Z,99538.72
2022-11-18T06:31:02.014Z,99532.59
2022-11-18T06:32:03.567Z,99535.09
2022-11-18T06:33:06.148Z,99536.75
2022-11-18T06:34:08.755Z,99541.09
2022-11-18T06:35:11.946Z,99543.56
2022-11-18T06:36:14.481Z,99539.94
2022-11-18T06:37:20.466Z,99541.59
2022-11-18T06:38:24.886Z,99540.59
2022-11-18T06:39:26.524Z,99557.50
2022-11-18T06:40:34.289Z,99547.59
2022-11-18T06:41:37.405Z,99551.06
2022-11-18T06:42:57.449Z,99559.88
2022-11-18T06:43:59.213Z,99560.69
2022-11-18T06:45:02.013Z,99554.56
2022-11-18T06:46:24.180Z,99559.69
2022-11-18T06:47:26.792Z,99560.53
2022-11-18T06:48:28.420Z,99560.69
2022-11-18T06:49:31.097Z,99563.19
2022-11-18T06:50:32.767Z,99561.53
2022-11-18T06:51:35.838Z,99557.06
2022-11-18T06:52:39.808Z,99568.34
2022-11-18T06:53:41.494Z,99568.34
2022-11-18T06:54:44.082Z,99569.16
2022-11-18T06:55:45.673Z,99572.66
2022-11-18T06:56:48.351Z,99578.81
2022-11-18T06:57:49.894Z,99573.50
2022-11-18T06:58:57.444Z,99577.81
2022-11-18T07:00:02.245Z,99575.19
2022-11-18T07:01:11.169Z,99587.44
2022-11-18T07:02:13.932Z,99574.34
2022-11-18T07:03:15.444Z,99575.19
2022-11-18T07:04:17.980Z,99583.13
2022-11-18T07:05:19.546Z,99586.78
2022-11-18T07:06:24.066Z,99585.94
2022-11-18T07:07:25.751Z,99593.06
2022-11-18T07:08:31.386Z,99587.75
2022-11-18T07:09:36.343Z,99592.22
2022-11-18T07:10:37.998Z,99598.66
2022-11-18T07:11:41.346Z,99598.66
2022-11-18T07:12:42.929Z,99601.31
2022-11-18T07:13:46.425Z,99602.16
2022-11-18T07:14:48.947Z,99598.66
2022-11-18T07:15:50.567Z,99601.31
2022-11-18T07:16:53.079Z,99606.50
2022-11-18T07:17:54.572Z,99616.28
2022-11-18T07:18:57.411Z,99610.13
2022-11-18T07:19:59.924Z,99616.28
2022-11-18T07:21:02.893Z,99612.78
2022-11-18T07:22:05.719Z,99613.63
2022-11-18T07:23:07.363Z,99625.06
2022-11-18T07:24:14.029Z,99619.59
2022-11-18T07:25:15.726Z,99622.25
2022-11-18T07:26:19.395Z,99630.19
2022-11-18T07:27:20.917Z,99619.59
2022-11-18T07:28:23.440Z,99622.25
2022-11-18T07:29:26.349Z,99622.94
2022-11-18T07:30:27.945Z,99629.22
2022-11-18T07:31:30.827Z,99624.91
2022-11-18T07:32:32.944Z,99624.06
2022-11-18T07:33:36.334Z,99631.22
2022-11-18T07:34:37.912Z,99633.03
2022-11-18T07:35:40.504Z,99637.50
2022-11-18T07:36:43.116Z,99643.63
2022-11-18T07:37:44.677Z,99642.94
2022-11-18T07:38:47.839Z,99642.13
2022-11-18T07:39:50.802Z,99646.44
2022-11-18T07:40:53.405Z,99644.78
2022-11-18T07:41:56.026Z,99646.44
2022-11-18T07:42:57.624Z,99653.41
2022-11-18T07:44:02.211Z,99652.44
2022-11-18T07:45:04.242Z,99647.13
2022-11-18T07:46:11.561Z,99651.44
2022-11-18T07:47:13.305Z,99655.75
2022-11-18T07:48:15.900Z,99654.78
2022-11-18T07:49:18.910Z,99649.47
2022-11-18T07:50:20.661Z,99658.09
2022-11-18T07:51:26.130Z,99650.16
2022-11-18T07:52:27.805Z,99654.47
2022-11-18T07:53:32.955Z,99659.63
2022-11-18T07:54:35.986Z,99659.50
2022-11-18T07:55:39.004Z,99659.50
2022-11-18T07:56:41.744Z,99660.19
2022-11-18T07:57:43.451Z,99663.69
2022-11-18T07:58:46.548Z,99665.19
2022-11-18T07:59:48.132Z,99663.38
2022-11-18T08:00:50.682Z,99662.53
2022-11-18T08:01:52.266Z,99671.19
2022-11-18T08:02:54.799Z,99667.53
2022-11-18T08:03:58.312Z,99671.19
2022-11-18T08:05:00.881Z,99672.84
2022-11-18T08:06:03.267Z,99668.22
2022-11-18T08:07:05.843Z,99671.03
2022-11-18T08:08:07.781Z,99676.19
2022-11-18T08:09:10.604Z,99678.97
2022-11-18T08:10:12.164Z,99677.34
2022-11-18T08:11:22.281Z,99680.97
2022-11-18T08:12:25.324Z,99673.16
2022-11-18T08:13:27.620Z,99679.47
2022-11-18T08:14:30.325Z,99676.09
2022-11-18T08:15:31.832Z,99681.59
2022-11-18T08:16:34.334Z,99681.69
2022-11-18T08:17:35.898Z,99684.66
2022-11-18T08:18:38.411Z,99681.31
2022-11-18T08:19:39.962Z,99683.28
2022-11-18T08:20:42.562Z,99688.75
2022-11-18T08:21:45.140Z,99688.06
2022-11-18T08:22:47.757Z,99690.19
2022-11-18T08:23:50.336Z,99695.66
2022-11-18T08:24:52.832Z,99697.63
2022-11-18T08:26:03.669Z,99701.25
2022-11-18T08:27:07.513Z,99695.25
2022-11-18T08:28:09.585Z,99695.41
2022-11-18T08:29:12.151Z,99704.34
2022-11-18T08:30:14.169Z,99703.50
2022-11-18T08:31:19.231Z,99708.00
2022-11-18T08:32:21.814Z,99709.81
2022-11-18T08:33:23.644Z,99709.97
2022-11-18T08:34:26.143Z,99719.72
2022-11-18T08:35:28.059Z,99708.28
2022-11-18T08:36:33.643Z,99700.50
2022-11-18T08:37:35.180Z,99706.63
2022-11-18T08:38:38.219Z,99713.59
2022-11-18T08:39:40.724Z,99713.59
2022-11-18T08:40:45.542Z,99708.28
2022-11-18T08:41:48.184Z,99708.28
2022-11-18T08:42:52.131Z,99706.63
2022-11-18T08:43:53.716Z,99703.97
2022-11-18T08:44:56.423Z,99709.41
2022-11-18T08:45:57.988Z,99710.25
2022-11-18T08:47:00.470Z,99710.25
2022-11-18T08:48:02.386Z,99706.63
2022-11-18T08:49:04.907Z,99709.28
2022-11-18T08:50:08.405Z,99713.75
2022-11-18T08:51:12.367Z,99715.56
2022-11-18T08:52:13.960Z,99711.94
2022-11-18T08:53:16.842Z,99716.41
2022-11-18T08:54:19.359Z,99718.09
2022-11-18T08:55:21.889Z,99720.75
2022-11-18T08:56:24.727Z,99718.88
2022-11-18T08:57:27.342Z,99718.09
2022-11-18T08:58:30.549Z,99718.88
2022-11-18T08:59:33.426Z,99726.84
2022-11-18T09:00:34.950Z,99721.53
2022-11-18T09:01:38.299Z,99725.03
2022-11-18T09:02:41.166Z,99720.56
2022-11-18T09:03:42.778Z,99727.56
2022-11-18T09:04:48.103Z,99723.94
2022-11-18T09:05:50.225Z,99729.22
2022-11-18T09:06:52.821Z,99727.25
2022-11-18T09:07:55.400Z,99728.09
2022-11-18T09:09:00.643Z,99727.94
2022-11-18T09:10:06.939Z,99728.94
2022-11-18T09:11:10.431Z,99734.06
2022-11-18T09:12:14.954Z,99733.94
2022-11-18T09:13:44.735Z,99734.78
2022-11-18T09:16:02.147Z,99732.63
2022-11-18T09:17:04.634Z,99739.63
2022-11-18T09:18:06.258Z,99739.63
2022-11-18T09:19:32.006Z,99738.47
2022-11-18T09:20:31.367Z,99747.97
2022-11-18T09:21:36.758Z,99752.28
2022-11-18T09:22:42.148Z,99751.31
2022-11-18T09:23:44.063Z,99749.50
2022-11-18T09:24:46.562Z,99741.34
2022-11-18T09:25:48.174Z,99754.50
2022-11-18T09:26:50.799Z,99746.38
2022-11-18T09:27:55.373Z,99753.34
2022-11-18T09:28:57.000Z,99751.44
2022-11-18T09:30:00.844Z,99748.59
2022-11-18T09:31:04.081Z,99748.59
2022-11-18T09:32:06.619Z,99744.13
2022-11-18T09:33:08.195Z,99752.78
2022-11-18T09:34:11.106Z,99751.94
2022-11-18T09:35:14.323Z,99750.13
2022-11-18T09:36:17.785Z,99759.75
2022-11-18T09:37:20.269Z,99755.28
2022-11-18T09:38:21.840Z,99753.47
2022-11-18T09:39:24.930Z,99756.13
2022-11-18T09:40:28.631Z,99755.13
2022-11-18T09:41:45.532Z,99753.16
2022-11-18T09:42:58.563Z,99760.31
2022-11-18T09:44:08.780Z,99756.66
2022-11-18T09:45:24.335Z,99754.69
2022-11-18T09:46:33.913Z,99764.47
2022-11-18T09:47:37.012Z,99761.66
2022-11-18T09:48:57.070Z,99760.84
2022-11-18T09:50:14.856Z,99768.78
2022-11-18T09:51:28.187Z,99760.84
2022-11-18T09:52:36.086Z,99765.31
2022-11-18T09:53:42.272Z,99769.78
2022-11-18T09:54:44.322Z,99766.44
2022-11-18T09:55:48.655Z,99772.59
2022-11-18T09:56:52.427Z,99782.38
2022-11-18T09:57:59.953Z,99776.06
2022-11-18T09:59:04.815Z,99778.72
2022-11-18T10:00:13.540Z,99783.22
2022-11-18T10:01:21.532Z,99784.03
2022-11-18T10:02:50.010Z,99780.38
2022-11-18T10:03:51.764Z,99788.34
2022-11-18T10:04:55.747Z,99791.00
2022-11-18T10:06:04.422Z,99789.34
2022-11-18T10:07:16.548Z,99788.00
2022-11-18T10:08:24.879Z,99785.34
2022-11-18T10:09:32.868Z,99790.63
2022-11-18T10:10:43.625Z,99795.94
2022-11-18T10:11:59.262Z,99799.56
2022-11-18T10:13:09.816Z,99796.09
2022-11-18T10:14:27.423Z,99803.22
2022-11-18T10:15:36.137Z,99804.22
2022-11-18T10:16:53.832Z,99799.72
2022-11-18T10:18:09.070Z,99800.72
2022-11-18T10:19:25.272Z,99798.91
2022-11-18T10:20:38.803Z,99804.22
2022-11-18T10:21:54.403Z,99807.84
2022-11-18T10:23:03.688Z,99804.88
2022-11-18T10:24:13.352Z,99803.91
2022-11-18T10:25:17.729Z,99808.09
2022-11-18T10:26:33.592Z,99803.59
2022-11-18T10:27:38.890Z,99810.56
2022-11-18T10:28:41.386Z,99805.13
2022-11-18T10:29:44.666Z,99805.97
2022-11-18T10:30:47.290Z,99803.97
2022-11-18T10:32:04.585Z,99815.31
2022-11-18T10:33:24.203Z,99814.16
2022-11-18T10:34:26.726Z,99811.34
2022-11-18T10:35:31.432Z,99818.19
2022-11-18T10:36:35.328Z,99819.84
2022-11-18T10:38:07.387Z,99823.03
2022-11-18T10:39:14.414Z,99815.47
2022-11-18T10:40:25.960Z,99822.13
2022-11-18T10:41:27.513Z,99824.63
2022-11-18T10:42:35.394Z,99820.16
2022-11-18T10:43:49.346Z,99823.50
2022-11-18T10:44:52.128Z,99825.19
2022-11-18T10:45:54.691Z,99829.66
2022-11-18T10:47:17.143Z,99832.84
2022-11-18T10:48:20.218Z,99833.50
2022-11-18T10:49:21.955Z,99836.88
2022-11-18T10:50:34.799Z,99830.41
2022-11-18T10:51:37.956Z,99829.25
2022-11-18T10:52:53.250Z,99827.44
2022-11-18T10:54:07.425Z,99828.94
2022-11-18T10:55:21.071Z,99830.78
2022-11-18T10:56:23.644Z,99833.28
2022-11-18T10:57:26.259Z,99829.66
2022-11-18T10:58:32.077Z,99827.00
2022-11-18T10:59:36.541Z,99838.28
2022-11-18T11:00:42.581Z,99835.63
2022-11-18T11:02:04.009Z,99834.50
2022-11-18T11:03:39.786Z,99837.00
2022-11-18T11:04:42.071Z,99829.72
2022-11-18T11:05:44.781Z,99829.72
2022-11-18T11:06:46.342Z,99834.88
2022-11-18T11:08:28.922Z,99833.06
2022-11-18T11:09:28.545Z,99829.41
2022-11-18T11:10:30.127Z,99831.38
2022-11-18T11:11:34.721Z,99829.72
2022-11-18T11:12:46.832Z,99835.88
2022-11-18T11:13:49.480Z,99831.38
2022-11-18T11:14:55.799Z,99833.06
2022-11-18T11:16:03.545Z,99829.41
2022-11-18T11:17:12.439Z,99831.09
2022-11-18T11:18:39.453Z,99836.41
2022-11-18T11:19:50.025Z,99837.06
2022-11-18T11:20:51.901Z,99830.78
2022-11-18T11:21:54.588Z,99837.59
2022-11-18T11:22:56.330Z,99832.81
2022-11-18T11:23:59.168Z,99830.69
2022-11-18T11:25:01.846Z,99829.22
2022-11-18T11:29:15.972Z,99832.69
2022-11-18T11:30:21.232Z,99840.19
2022-11-18T11:31:29.826Z,99837.06
2022-11-18T11:32:52.719Z,99831.44
2022-11-18T11:34:01.143Z,99838.13
2022-11-18T11:35:12.608Z,99840.28
2022-11-18T11:36:26.589Z,99846.13
2022-11-18T11:37:37.135Z,99841.50
2022-11-18T11:38:55.091Z,99835.88
2022-11-18T11:40:20.764Z,99838.06
2022-11-18T11:41:24.388Z,99835.94
2022-11-18T11:42:38.871Z,99840.28
2022-11-18T11:43:54.820Z,99842.63
2022-11-18T11:45:11.010Z,99841.31
2022-11-18T11:46:26.873Z,99845.03
2022-11-18T11:47:49.951Z,99836.53
2022-11-18T11:48:59.411Z,99845.53
2022-11-18T11:50:06.068Z,99842.69
2022-11-18T11:51:17.094Z,99842.69
2022-11-18T11:52:31.797Z,99849.69
2022-11-18T11:53:53.339Z,99840.72
2022-11-18T11:55:08.861Z,99843.22
2022-11-18T11:56:22.659Z,99844.06
2022-11-18T11:57:38.814Z,99844.38
2022-11-18T11:58:58.063Z,99843.41
2022-11-18T12:00:05.259Z,99841.72
2022-11-18T12:01:21.038Z,99841.84
2022-11-18T12:02:48.623Z,99837.69
2022-11-18T12:03:57.504Z,99839.69
2022-11-18T12:05:08.771Z,99838.00
2022-11-18T12:06:12.088Z,99835.34
2022-11-18T12:07:19.437Z,99838.19
2022-11-18T12:08:24.619Z,99839.19
2022-11-18T12:09:37.168Z,99835.81
2022-11-18T12:10:46.285Z,99845.66
2022-11-18T12:11:55.044Z,99843.97
2022-11-18T12:13:19.443Z,99837.66
2022-11-18T12:14:35.791Z,99847.31
2022-11-18T12:15:50.622Z,99846.97
2022-11-18T12:16:59.786Z,99847.50
2022-11-18T12:18:14.640Z,99852.34
2022-11-18T12:19:19.123Z,99855.88
2022-11-18T12:20:44.706Z,99851.38
2022-11-18T12:21:54.594Z,99854.84
2022-11-18T12:23:20.301Z,99849.84
2022-11-18T12:24:31.360Z,99851.97
2022-11-18T12:26:04.434Z,99856.28
2022-11-18T12:27:23.673Z,99855.91
2022-11-18T12:28:29.181Z,99855.88
2022-11-18T12:29:44.952Z,99854.50
2022-11-18T12:30:46.722Z,99859.28
2022-11-18T12:31:50.579Z,99856.78
2022-11-18T12:32:57.566Z,99853.44
2022-11-18T12:34:03.886Z,99858.75
2022-11-18T12:35:25.654Z,99856.25
2022-11-18T12:36:28.230Z,99852.09
2022-11-18T12:37:57.536Z,99853.25
2022-11-18T12:39:21.109Z,99843.56
2022-11-18T12:40:39.539Z,99850.75
2022-11-18T12:42:18.254Z,99850.44
2022-11-18T12:44:05.776Z,99853.75
2022-11-18T12:45:56.743Z,99846.63
2022-11-18T12:47:00.109Z,99851.78
2022-11-18T12:48:01.679Z,99859.09
2022-11-18T12:49:43.024Z,99859.41
2022-11-18T12:50:51.048Z,99854.38
2022-11-18T12:51:55.009Z,99861.00
2022-11-18T12:52:56.693Z,99863.97
2022-11-18T12:53:59.350Z,99865.28
2022-11-18T12:55:05.647Z,99865.56
2022-11-18T12:56:13.451Z,99862.56
2022-11-18T12:57:19.613Z,99870.84
2022-11-18T12:58:26.944Z,99871.16
2022-11-18T12:59:36.179Z,99875.09
2022-11-18T13:00:52.483Z,99871.09
2022-11-18T13:02:04.521Z,99874.03
2022-11-18T13:03:06.965Z,99879.66
2022-11-18T13:04:13.094Z,99876.31
2022-11-18T13:05:22.408Z,99876.63